Unlu-5 — TCON5 — position and weather

sailwx.info

Track history (hours):
 
Tides and Currents Weather Stations Pressure Air Temp Water Temp Dewpoint Dewpoint Depression Visibility Wind Speed Wind Dir Waves Ship Positions

Unlu-5

Last reported at 2017-Mar-18 15:33 UTC. Time now 2017-Mar-26 18:46 UTC.
Position N 37°51' E 016°01'.
Warning: this ship's position is 8 days out of date.

Length 99 m; draft 6.4 m.

Type: Cargo ship. MMSI: 271000854.

Date/timePositionNaut miles runAvg speedWind from/ knotsBaromVisibWave heightAir tempDewpointWater temp
2017-Mar-18 15:33N 37°51' E 016°01'8 8.2
2017-Mar-18 14:33N 37°51' E 015°51'8 8.3
2017-Mar-18 13:33N 37°52' E 015°41'9 9.1
2017-Mar-18 12:33N 37°59' E 015°33'8 7.8
2017-Mar-18 11:34N 38°06' E 015°34'9 8.9
2017-Mar-18 10:34N 38°15' E 015°38'6 5.8
2017-Mar-18 09:33N 38°20' E 015°35'8 8.1
2017-Mar-18 08:34N 38°21' E 015°25'9 9.0
2017-Mar-18 07:34N 38°21' E 015°13'9 8.6
2017-Mar-18 06:34N 38°21' E 015°02'9 8.8
2017-Mar-18 05:32N 38°22' E 014°51'8 8.4
2017-Mar-18 04:34N 38°23' E 014°40'9 7.7
2017-Mar-18 03:23N 38°24' E 014°29'38 7.5
2017-Mar-17 22:15N 38°26' E 013°40'6 8.3
2017-Mar-17 21:34N 38°27' E 013°33'9 8.8
2017-Mar-17 20:34N 38°27' E 013°22'9 8.7
2017-Mar-17 19:33N 38°27' E 013°10'9 8.5
2017-Mar-17 18:33N 38°27' E 012°60'8 8.4
2017-Mar-17 17:33N 38°27' E 012°49'9 8.3
2017-Mar-17 16:28N 38°29' E 012°37'145 8.1
2017-Mar-16 22:29N 38°56' E 009°34'8 8.0
2017-Mar-16 21:32N 38°57' E 009°25'7 7.5
2017-Mar-16 20:33N 39°01' E 009°17'8 7.7
2017-Mar-16 19:33N 39°05' E 009°09'7 7.0
2017-Mar-16 18:33N 39°12' E 009°05'2 1.7
2017-Mar-16 17:31N 39°13' E 009°04'0 0.0
2017-Mar-16 16:32N 39°13' E 009°04'0 0.0
2017-Mar-16 15:32N 39°13' E 009°04'0 0.0
2017-Mar-16 14:32N 39°13' E 009°04'0 0.0
2017-Mar-16 13:31N 39°13' E 009°04'0 0.0
2017-Mar-16 12:32N 39°13' E 009°04'0 0.0
2017-Mar-16 11:32N 39°13' E 009°04'0 0.0
2017-Mar-16 10:32N 39°13' E 009°04'0 0.0
2017-Mar-16 09:32N 39°13' E 009°04'0 0.0
2017-Mar-16 08:32N 39°13' E 009°04'0 0.0
2017-Mar-16 07:32N 39°13' E 009°04'0 0.0
2017-Mar-16 06:32N 39°13' E 009°04'0 0.0
2017-Mar-16 05:32N 39°13' E 009°04'0 0.0
2017-Mar-16 04:32N 39°13' E 009°04'0 0.0
2017-Mar-16 03:29N 39°13' E 009°04'0 0.0
2017-Mar-16 02:32N 39°13' E 009°04'0 0.0
2017-Mar-16 01:32N 39°13' E 009°04'0 0.0
2017-Mar-16 00:32N 39°13' E 009°04'0 0.0
2017-Mar-15 23:32N 39°13' E 009°04'0 0.0
2017-Mar-15 22:32N 39°13' E 009°04'0 0.0
2017-Mar-15 21:32N 39°13' E 009°04'0 0.0
2017-Mar-15 20:32N 39°13' E 009°04'0 0.0
2017-Mar-15 19:32N 39°13' E 009°04'0 0.0
2017-Mar-15 18:32N 39°13' E 009°04'0 0.0
2017-Mar-15 17:32N 39°13' E 009°04'0 0.0
2017-Mar-15 16:32N 39°13' E 009°04'0 0.0
2017-Mar-15 15:31N 39°13' E 009°04'0 0.0
2017-Mar-15 14:31N 39°13' E 009°04'0 0.0
2017-Mar-15 13:32N 39°13' E 009°04'0 0.0
2017-Mar-15 12:32N 39°13' E 009°04'0 0.0
2017-Mar-15 11:31N 39°13' E 009°04'0 0.0
2017-Mar-15 10:29N 39°13' E 009°04'0 0.0
2017-Mar-15 09:32N 39°13' E 009°04'0 0.0
2017-Mar-15 08:32N 39°13' E 009°04'0 0.0
2017-Mar-15 01:14N 39°13' E 009°04'0 0.0
2017-Mar-15 00:32N 39°13' E 009°04'0 0.0
2017-Mar-14 23:31N 39°13' E 009°04'0 0.0
2017-Mar-14 22:31N 39°13' E 009°04'0 0.0
2017-Mar-14 21:32N 39°13' E 009°04'0 0.0
2017-Mar-14 20:32N 39°13' E 009°04'0 0.0
2017-Mar-14 19:32N 39°13' E 009°04'0 0.0
2017-Mar-14 18:32N 39°13' E 009°04'0 0.0
2017-Mar-14 17:32N 39°13' E 009°04'0 0.0
2017-Mar-14 16:32N 39°13' E 009°04'0 0.0
2017-Mar-14 15:32N 39°13' E 009°04'0 0.0
2017-Mar-14 14:32N 39°13' E 009°04'0 0.0
2017-Mar-14 13:32N 39°13' E 009°04'0 0.0
2017-Mar-14 12:31N 39°13' E 009°04'0 0.0
2017-Mar-14 11:33N 39°13' E 009°04'4 3.5
2017-Mar-14 10:32N 39°10' E 009°07'3 3.1
2017-Mar-14 09:31N 39°07' E 009°08'0 0.0
2017-Mar-14 08:31N 39°07' E 009°08'0 0.0
2017-Mar-14 07:31N 39°07' E 009°08'0 0.0
2017-Mar-14 06:32N 39°07' E 009°08'0 0.0
2017-Mar-14 05:32N 39°07' E 009°08'0 0.0
2017-Mar-14 04:31N 39°07' E 009°08'0 0.0
2017-Mar-14 03:31N 39°07' E 009°08'0 0.0
2017-Mar-14 02:31N 39°07' E 009°08'0 0.0
2017-Mar-14 01:31N 39°07' E 009°08'0 0.0
2017-Mar-14 00:31N 39°07' E 009°08'0 0.0
2017-Mar-13 23:31N 39°07' E 009°08'0 0.0
2017-Mar-13 22:32N 39°07' E 009°08'0 0.0
2017-Mar-13 21:31N 39°07' E 009°08'0 0.0
2017-Mar-13 20:31N 39°07' E 009°08'0 0.0
2017-Mar-13 19:32N 39°07' E 009°08'0 0.0
2017-Mar-13 18:31N 39°07' E 009°08'0 0.0
2017-Mar-13 17:25N 39°07' E 009°08'0 0.0
2017-Mar-13 16:28N 39°07' E 009°08'0 0.0
2017-Mar-13 15:31N 39°07' E 009°08'0 0.0
2017-Mar-13 14:31N 39°07' E 009°08'0 0.0
2017-Mar-13 13:31N 39°07' E 009°08'0 0.0
2017-Mar-13 12:31N 39°07' E 009°08'0 0.0
2017-Mar-13 11:31N 39°07' E 009°08'0 0.0
2017-Mar-13 10:32N 39°07' E 009°08'0 0.0
2017-Mar-13 09:32N 39°07' E 009°08'0 0.0
2017-Mar-13 08:31N 39°07' E 009°08'0 0.0
2017-Mar-13 07:31N 39°07' E 009°08'0 0.0
2017-Mar-13 06:31N 39°07' E 009°08'0 0.0
2017-Mar-13 05:31N 39°07' E 009°08'0 0.0
2017-Mar-13 04:25N 39°07' E 009°08'0 0.0
2017-Mar-13 03:32N 39°07' E 009°08'0 0.0
2017-Mar-13 02:31N 39°07' E 009°08'0 0.0
2017-Mar-13 01:31N 39°07' E 009°08'0 0.0
2017-Mar-13 00:31N 39°07' E 009°08'0 0.0
2017-Mar-12 23:31N 39°07' E 009°08'0 0.0
2017-Mar-12 22:31N 39°07' E 009°08'0 0.0
2017-Mar-12 21:31N 39°07' E 009°08'0 0.0
2017-Mar-12 20:31N 39°07' E 009°08'0 0.0
2017-Mar-12 19:32N 39°07' E 009°08'0 0.0
2017-Mar-12 18:31N 39°07' E 009°08'0 0.0
2017-Mar-12 17:32N 39°07' E 009°08'0 0.0
2017-Mar-12 16:31N 39°07' E 009°08'0 0.0
2017-Mar-12 15:31N 39°07' E 009°08'0 0.0
2017-Mar-12 14:31N 39°07' E 009°08'0 0.0
2017-Mar-12 13:31N 39°07' E 009°08'0 0.0
2017-Mar-12 12:31N 39°07' E 009°08'0 0.0
2017-Mar-12 11:31N 39°07' E 009°08'0 0.0
2017-Mar-12 10:31N 39°07' E 009°08'0 0.1
2017-Mar-12 09:31N 39°07' E 009°08'0 0.0
2017-Mar-12 08:32N 39°07' E 009°08'0 0.0
2017-Mar-12 07:31N 39°07' E 009°08'0 0.0
2017-Mar-12 06:31N 39°07' E 009°08'0 0.0
2017-Mar-12 05:31N 39°07' E 009°08'0 0.0
2017-Mar-12 04:31N 39°07' E 009°08'0 0.0
2017-Mar-12 03:31N 39°07' E 009°08'0 0.0
2017-Mar-12 02:31N 39°07' E 009°08'0 0.0
2017-Mar-12 01:31N 39°07' E 009°08'0 0.0
2017-Mar-12 00:32N 39°07' E 009°08'0 0.0
2017-Mar-11 23:31N 39°07' E 009°08'0 0.0
2017-Mar-11 22:31N 39°07' E 009°08'0 0.1
2017-Mar-11 21:31N 39°07' E 009°08'0 0.1
2017-Mar-11 20:32N 39°07' E 009°08'0 0.0
2017-Mar-11 19:31N 39°07' E 009°08'0 0.0
2017-Mar-11 18:32N 39°07' E 009°08'0 0.0
2017-Mar-11 17:32N 39°07' E 009°08'0 0.0
2017-Mar-11 16:31N 39°07' E 009°08'0 0.0
2017-Mar-11 15:31N 39°07' E 009°08'0 0.0
2017-Mar-11 14:32N 39°07' E 009°08'0 0.0
2017-Mar-11 13:32N 39°07' E 009°08'0 0.0
2017-Mar-11 12:32N 39°07' E 009°08'0 0.0
2017-Mar-11 11:31N 39°07' E 009°08'0 0.1
2017-Mar-11 10:31N 39°07' E 009°08'0 0.0
2017-Mar-11 09:31N 39°07' E 009°08'0 0.0
2017-Mar-11 08:31N 39°07' E 009°08'0 0.0
2017-Mar-11 07:32N 39°07' E 009°08'0 0.0
2017-Mar-11 06:28N 39°07' E 009°08'0 0.0
2017-Mar-11 05:31N 39°07' E 009°08'0 0.0
2017-Mar-11 04:32N 39°07' E 009°08'0 0.0
2017-Mar-11 03:31N 39°07' E 009°08'0 0.0
2017-Mar-11 02:31N 39°07' E 009°08'0 0.0
2017-Mar-11 01:31N 39°07' E 009°08'0 0.0
2017-Mar-11 00:32N 39°07' E 009°08'0 0.0
2017-Mar-10 23:29N 39°07' E 009°08'0 0.0
2017-Mar-10 22:31N 39°07' E 009°08'0 0.0
2017-Mar-10 21:31N 39°07' E 009°08'0 0.0
2017-Mar-10 20:28N 39°07' E 009°08'0 0.1
2017-Mar-10 19:31N 39°07' E 009°08'0 0.0
2017-Mar-10 18:31N 39°07' E 009°08'0 0.0
2017-Mar-10 17:32N 39°07' E 009°08'0 0.0
2017-Mar-10 16:31N 39°07' E 009°08'0 0.0
2017-Mar-10 15:31N 39°07' E 009°08'0 0.0
2017-Mar-10 14:28N 39°07' E 009°08'0 0.1
2017-Mar-10 13:31N 39°07' E 009°08'0 0.0
2017-Mar-10 12:28N 39°07' E 009°08'0 0.0
2017-Mar-10 11:31N 39°07' E 009°08'0 0.0
2017-Mar-10 10:31N 39°07' E 009°08'0 0.0
2017-Mar-10 09:31N 39°07' E 009°08'0 0.0
2017-Mar-10 08:31N 39°07' E 009°08'0 0.0
2017-Mar-10 07:31N 39°07' E 009°08'0 0.0
2017-Mar-10 06:31N 39°07' E 009°08'0 0.0
2017-Mar-10 05:32N 39°07' E 009°08'0 0.0
2017-Mar-10 04:32N 39°07' E 009°08'0 0.0
2017-Mar-10 03:28N 39°07' E 009°08'0 0.0
2017-Mar-10 02:31N 39°07' E 009°08'0 0.0
2017-Mar-10 01:31N 39°07' E 009°08'0 0.0
2017-Mar-10 00:31N 39°07' E 009°08'0 0.0
2017-Mar-09 23:31N 39°07' E 009°08'0 0.0
2017-Mar-09 22:32N 39°07' E 009°08'0 0.0
2017-Mar-09 21:32N 39°07' E 009°08'0 0.0
2017-Mar-09 20:32N 39°07' E 009°08'0 0.0
2017-Mar-09 19:31N 39°07' E 009°08'0 0.0
2017-Mar-09 18:31N 39°07' E 009°08'0 0.0
2017-Mar-09 17:31N 39°07' E 009°08'0 0.0
2017-Mar-09 16:31N 39°07' E 009°08'0 0.0
2017-Mar-09 15:31N 39°07' E 009°08'0 0.0
2017-Mar-09 14:31N 39°07' E 009°08'0 0.0
2017-Mar-09 13:31N 39°07' E 009°08'0 0.0
2017-Mar-09 12:32N 39°07' E 009°08'0 0.0
2017-Mar-09 11:29N 39°07' E 009°08'0 0.0
2017-Mar-09 10:32N 39°07' E 009°08'0 0.0
2017-Mar-09 09:32N 39°07' E 009°08'0 0.0
2017-Mar-09 08:32N 39°07' E 009°08'0 0.0
2017-Mar-09 07:32N 39°07' E 009°09'0 0.1
2017-Mar-09 06:31N 39°07' E 009°08'0 0.1
2017-Mar-09 05:32N 39°07' E 009°08'0 0.0
2017-Mar-09 04:31N 39°07' E 009°08'0 0.0
2017-Mar-09 03:32N 39°07' E 009°08'0 0.0
2017-Mar-09 02:32N 39°07' E 009°08'0 0.0
2017-Mar-09 01:31N 39°07' E 009°08'0 0.0
2017-Mar-09 00:31N 39°07' E 009°08'0 0.0
2017-Mar-08 23:31N 39°07' E 009°08'0 0.0
2017-Mar-08 22:32N 39°07' E 009°08'0 0.0
2017-Mar-08 21:31N 39°07' E 009°08'0 0.0
2017-Mar-08 20:31N 39°07' E 009°08'0 0.0
2017-Mar-08 19:31N 39°07' E 009°08'0 0.0
2017-Mar-08 18:28N 39°07' E 009°08'0 0.0
2017-Mar-08 17:31N 39°07' E 009°08'0 0.0
2017-Mar-08 16:31N 39°07' E 009°08'  
Track history (hours):
 
Tides and Currents Weather Stations Pressure Air Temp Water Temp Dewpoint Dewpoint Depression Visibility Wind Speed Wind Dir Waves Ship Positions

Unlu-5

Last reported at 2017-Mar-18 15:33 UTC. Time now 2017-Mar-26 18:46 UTC.
Position N 37°51' E 016°01'.
Warning: this ship's position is 8 days out of date.

Length 99 m; draft 6.4 m.

Type: Cargo ship. MMSI: 271000854.

Date/timePositionNaut miles runAvg speedWind from/ knotsBaromVisibWave heightAir tempDewpointWater temp
2017-Mar-18 15:33N 37°51' E 016°01'8 8.2
2017-Mar-18 14:33N 37°51' E 015°51'8 8.3
2017-Mar-18 13:33N 37°52' E 015°41'9 9.1
2017-Mar-18 12:33N 37°59' E 015°33'8 7.8
2017-Mar-18 11:34N 38°06' E 015°34'9 8.9
2017-Mar-18 10:34N 38°15' E 015°38'6 5.8
2017-Mar-18 09:33N 38°20' E 015°35'8 8.1
2017-Mar-18 08:34N 38°21' E 015°25'9 9.0
2017-Mar-18 07:34N 38°21' E 015°13'9 8.6
2017-Mar-18 06:34N 38°21' E 015°02'9 8.8
2017-Mar-18 05:32N 38°22' E 014°51'8 8.4
2017-Mar-18 04:34N 38°23' E 014°40'9 7.7
2017-Mar-18 03:23N 38°24' E 014°29'38 7.5
2017-Mar-17 22:15N 38°26' E 013°40'6 8.3
2017-Mar-17 21:34N 38°27' E 013°33'9 8.8
2017-Mar-17 20:34N 38°27' E 013°22'9 8.7
2017-Mar-17 19:33N 38°27' E 013°10'9 8.5
2017-Mar-17 18:33N 38°27' E 012°60'8 8.4
2017-Mar-17 17:33N 38°27' E 012°49'9 8.3
2017-Mar-17 16:28N 38°29' E 012°37'145 8.1
2017-Mar-16 22:29N 38°56' E 009°34'8 8.0
2017-Mar-16 21:32N 38°57' E 009°25'7 7.5
2017-Mar-16 20:33N 39°01' E 009°17'8 7.7
2017-Mar-16 19:33N 39°05' E 009°09'7 7.0
2017-Mar-16 18:33N 39°12' E 009°05'2 1.7
2017-Mar-16 17:31N 39°13' E 009°04'0 0.0
2017-Mar-16 16:32N 39°13' E 009°04'0 0.0
2017-Mar-16 15:32N 39°13' E 009°04'0 0.0
2017-Mar-16 14:32N 39°13' E 009°04'0 0.0
2017-Mar-16 13:31N 39°13' E 009°04'0 0.0
2017-Mar-16 12:32N 39°13' E 009°04'0 0.0
2017-Mar-16 11:32N 39°13' E 009°04'0 0.0
2017-Mar-16 10:32N 39°13' E 009°04'0 0.0
2017-Mar-16 09:32N 39°13' E 009°04'0 0.0
2017-Mar-16 08:32N 39°13' E 009°04'0 0.0
2017-Mar-16 07:32N 39°13' E 009°04'0 0.0
2017-Mar-16 06:32N 39°13' E 009°04'0 0.0
2017-Mar-16 05:32N 39°13' E 009°04'0 0.0
2017-Mar-16 04:32N 39°13' E 009°04'0 0.0
2017-Mar-16 03:29N 39°13' E 009°04'0 0.0
2017-Mar-16 02:32N 39°13' E 009°04'0 0.0
2017-Mar-16 01:32N 39°13' E 009°04'0 0.0
2017-Mar-16 00:32N 39°13' E 009°04'0 0.0
2017-Mar-15 23:32N 39°13' E 009°04'0 0.0
2017-Mar-15 22:32N 39°13' E 009°04'0 0.0
2017-Mar-15 21:32N 39°13' E 009°04'0 0.0
2017-Mar-15 20:32N 39°13' E 009°04'0 0.0
2017-Mar-15 19:32N 39°13' E 009°04'0 0.0
2017-Mar-15 18:32N 39°13' E 009°04'0 0.0
2017-Mar-15 17:32N 39°13' E 009°04'0 0.0
2017-Mar-15 16:32N 39°13' E 009°04'0 0.0
2017-Mar-15 15:31N 39°13' E 009°04'0 0.0
2017-Mar-15 14:31N 39°13' E 009°04'0 0.0
2017-Mar-15 13:32N 39°13' E 009°04'0 0.0
2017-Mar-15 12:32N 39°13' E 009°04'0 0.0
2017-Mar-15 11:31N 39°13' E 009°04'0 0.0
2017-Mar-15 10:29N 39°13' E 009°04'0 0.0
2017-Mar-15 09:32N 39°13' E 009°04'0 0.0
2017-Mar-15 08:32N 39°13' E 009°04'0 0.0
2017-Mar-15 01:14N 39°13' E 009°04'0 0.0
2017-Mar-15 00:32N 39°13' E 009°04'0 0.0
2017-Mar-14 23:31N 39°13' E 009°04'0 0.0
2017-Mar-14 22:31N 39°13' E 009°04'0 0.0
2017-Mar-14 21:32N 39°13' E 009°04'0 0.0
2017-Mar-14 20:32N 39°13' E 009°04'0 0.0
2017-Mar-14 19:32N 39°13' E 009°04'0 0.0
2017-Mar-14 18:32N 39°13' E 009°04'0 0.0
2017-Mar-14 17:32N 39°13' E 009°04'0 0.0
2017-Mar-14 16:32N 39°13' E 009°04'0 0.0
2017-Mar-14 15:32N 39°13' E 009°04'0 0.0
2017-Mar-14 14:32N 39°13' E 009°04'0 0.0
2017-Mar-14 13:32N 39°13' E 009°04'0 0.0
2017-Mar-14 12:31N 39°13' E 009°04'0 0.0
2017-Mar-14 11:33N 39°13' E 009°04'4 3.5
2017-Mar-14 10:32N 39°10' E 009°07'3 3.1
2017-Mar-14 09:31N 39°07' E 009°08'0 0.0
2017-Mar-14 08:31N 39°07' E 009°08'0 0.0
2017-Mar-14 07:31N 39°07' E 009°08'0 0.0
2017-Mar-14 06:32N 39°07' E 009°08'0 0.0
2017-Mar-14 05:32N 39°07' E 009°08'0 0.0
2017-Mar-14 04:31N 39°07' E 009°08'0 0.0
2017-Mar-14 03:31N 39°07' E 009°08'0 0.0
2017-Mar-14 02:31N 39°07' E 009°08'0 0.0
2017-Mar-14 01:31N 39°07' E 009°08'0 0.0
2017-Mar-14 00:31N 39°07' E 009°08'0 0.0
2017-Mar-13 23:31N 39°07' E 009°08'0 0.0
2017-Mar-13 22:32N 39°07' E 009°08'0 0.0
2017-Mar-13 21:31N 39°07' E 009°08'0 0.0
2017-Mar-13 20:31N 39°07' E 009°08'0 0.0
2017-Mar-13 19:32N 39°07' E 009°08'0 0.0
2017-Mar-13 18:31N 39°07' E 009°08'0 0.0
2017-Mar-13 17:25N 39°07' E 009°08'0 0.0
2017-Mar-13 16:28N 39°07' E 009°08'0 0.0
2017-Mar-13 15:31N 39°07' E 009°08'0 0.0
2017-Mar-13 14:31N 39°07' E 009°08'0 0.0
2017-Mar-13 13:31N 39°07' E 009°08'0 0.0
2017-Mar-13 12:31N 39°07' E 009°08'0 0.0
2017-Mar-13 11:31N 39°07' E 009°08'0 0.0
2017-Mar-13 10:32N 39°07' E 009°08'0 0.0
2017-Mar-13 09:32N 39°07' E 009°08'0 0.0
2017-Mar-13 08:31N 39°07' E 009°08'0 0.0
2017-Mar-13 07:31N 39°07' E 009°08'0 0.0
2017-Mar-13 06:31N 39°07' E 009°08'0 0.0
2017-Mar-13 05:31N 39°07' E 009°08'0 0.0
2017-Mar-13 04:25N 39°07' E 009°08'0 0.0
2017-Mar-13 03:32N 39°07' E 009°08'0 0.0
2017-Mar-13 02:31N 39°07' E 009°08'0 0.0
2017-Mar-13 01:31N 39°07' E 009°08'0 0.0
2017-Mar-13 00:31N 39°07' E 009°08'0 0.0
2017-Mar-12 23:31N 39°07' E 009°08'0 0.0
2017-Mar-12 22:31N 39°07' E 009°08'0 0.0
2017-Mar-12 21:31N 39°07' E 009°08'0 0.0
2017-Mar-12 20:31N 39°07' E 009°08'0 0.0
2017-Mar-12 19:32N 39°07' E 009°08'0 0.0
2017-Mar-12 18:31N 39°07' E 009°08'0 0.0
2017-Mar-12 17:32N 39°07' E 009°08'0 0.0
2017-Mar-12 16:31N 39°07' E 009°08'0 0.0
2017-Mar-12 15:31N 39°07' E 009°08'0 0.0
2017-Mar-12 14:31N 39°07' E 009°08'0 0.0
2017-Mar-12 13:31N 39°07' E 009°08'0 0.0
2017-Mar-12 12:31N 39°07' E 009°08'0 0.0
2017-Mar-12 11:31N 39°07' E 009°08'0 0.0
2017-Mar-12 10:31N 39°07' E 009°08'0 0.1
2017-Mar-12 09:31N 39°07' E 009°08'0 0.0
2017-Mar-12 08:32N 39°07' E 009°08'0 0.0
2017-Mar-12 07:31N 39°07' E 009°08'0 0.0
2017-Mar-12 06:31N 39°07' E 009°08'0 0.0
2017-Mar-12 05:31N 39°07' E 009°08'0 0.0
2017-Mar-12 04:31N 39°07' E 009°08'0 0.0
2017-Mar-12 03:31N 39°07' E 009°08'0 0.0
2017-Mar-12 02:31N 39°07' E 009°08'0 0.0
2017-Mar-12 01:31N 39°07' E 009°08'0 0.0
2017-Mar-12 00:32N 39°07' E 009°08'0 0.0
2017-Mar-11 23:31N 39°07' E 009°08'0 0.0
2017-Mar-11 22:31N 39°07' E 009°08'0 0.1
2017-Mar-11 21:31N 39°07' E 009°08'0 0.1
2017-Mar-11 20:32N 39°07' E 009°08'0 0.0
2017-Mar-11 19:31N 39°07' E 009°08'0 0.0
2017-Mar-11 18:32N 39°07' E 009°08'0 0.0
2017-Mar-11 17:32N 39°07' E 009°08'0 0.0
2017-Mar-11 16:31N 39°07' E 009°08'0 0.0
2017-Mar-11 15:31N 39°07' E 009°08'0 0.0
2017-Mar-11 14:32N 39°07' E 009°08'0 0.0
2017-Mar-11 13:32N 39°07' E 009°08'0 0.0
2017-Mar-11 12:32N 39°07' E 009°08'0 0.0
2017-Mar-11 11:31N 39°07' E 009°08'0 0.1
2017-Mar-11 10:31N 39°07' E 009°08'0 0.0
2017-Mar-11 09:31N 39°07' E 009°08'0 0.0
2017-Mar-11 08:31N 39°07' E 009°08'0 0.0
2017-Mar-11 07:32N 39°07' E 009°08'0 0.0
2017-Mar-11 06:28N 39°07' E 009°08'0 0.0
2017-Mar-11 05:31N 39°07' E 009°08'0 0.0
2017-Mar-11 04:32N 39°07' E 009°08'0 0.0
2017-Mar-11 03:31N 39°07' E 009°08'0 0.0
2017-Mar-11 02:31N 39°07' E 009°08'0 0.0
2017-Mar-11 01:31N 39°07' E 009°08'0 0.0
2017-Mar-11 00:32N 39°07' E 009°08'0 0.0
2017-Mar-10 23:29N 39°07' E 009°08'0 0.0
2017-Mar-10 22:31N 39°07' E 009°08'0 0.0
2017-Mar-10 21:31N 39°07' E 009°08'0 0.0
2017-Mar-10 20:28N 39°07' E 009°08'0 0.1
2017-Mar-10 19:31N 39°07' E 009°08'0 0.0
2017-Mar-10 18:31N 39°07' E 009°08'0 0.0
2017-Mar-10 17:32N 39°07' E 009°08'0 0.0
2017-Mar-10 16:31N 39°07' E 009°08'0 0.0
2017-Mar-10 15:31N 39°07' E 009°08'0 0.0
2017-Mar-10 14:28N 39°07' E 009°08'0 0.1
2017-Mar-10 13:31N 39°07' E 009°08'0 0.0
2017-Mar-10 12:28N 39°07' E 009°08'0 0.0
2017-Mar-10 11:31N 39°07' E 009°08'0 0.0
2017-Mar-10 10:31N 39°07' E 009°08'0 0.0
2017-Mar-10 09:31N 39°07' E 009°08'0 0.0
2017-Mar-10 08:31N 39°07' E 009°08'0 0.0
2017-Mar-10 07:31N 39°07' E 009°08'0 0.0
2017-Mar-10 06:31N 39°07' E 009°08'0 0.0
2017-Mar-10 05:32N 39°07' E 009°08'0 0.0
2017-Mar-10 04:32N 39°07' E 009°08'0 0.0
2017-Mar-10 03:28N 39°07' E 009°08'0 0.0
2017-Mar-10 02:31N 39°07' E 009°08'0 0.0
2017-Mar-10 01:31N 39°07' E 009°08'0 0.0
2017-Mar-10 00:31N 39°07' E 009°08'0 0.0
2017-Mar-09 23:31N 39°07' E 009°08'0 0.0
2017-Mar-09 22:32N 39°07' E 009°08'0 0.0
2017-Mar-09 21:32N 39°07' E 009°08'0 0.0
2017-Mar-09 20:32N 39°07' E 009°08'0 0.0
2017-Mar-09 19:31N 39°07' E 009°08'0 0.0
2017-Mar-09 18:31N 39°07' E 009°08'0 0.0
2017-Mar-09 17:31N 39°07' E 009°08'0 0.0
2017-Mar-09 16:31N 39°07' E 009°08'0 0.0
2017-Mar-09 15:31N 39°07' E 009°08'0 0.0
2017-Mar-09 14:31N 39°07' E 009°08'0 0.0
2017-Mar-09 13:31N 39°07' E 009°08'0 0.0
2017-Mar-09 12:32N 39°07' E 009°08'0 0.0
2017-Mar-09 11:29N 39°07' E 009°08'0 0.0
2017-Mar-09 10:32N 39°07' E 009°08'0 0.0
2017-Mar-09 09:32N 39°07' E 009°08'0 0.0
2017-Mar-09 08:32N 39°07' E 009°08'0 0.0
2017-Mar-09 07:32N 39°07' E 009°09'0 0.1
2017-Mar-09 06:31N 39°07' E 009°08'0 0.1
2017-Mar-09 05:32N 39°07' E 009°08'0 0.0
2017-Mar-09 04:31N 39°07' E 009°08'0 0.0
2017-Mar-09 03:32N 39°07' E 009°08'0 0.0
2017-Mar-09 02:32N 39°07' E 009°08'0 0.0
2017-Mar-09 01:31N 39°07' E 009°08'0 0.0
2017-Mar-09 00:31N 39°07' E 009°08'0 0.0
2017-Mar-08 23:31N 39°07' E 009°08'0 0.0
2017-Mar-08 22:32N 39°07' E 009°08'0 0.0
2017-Mar-08 21:31N 39°07' E 009°08'0 0.0
2017-Mar-08 20:31N 39°07' E 009°08'0 0.0
2017-Mar-08 19:31N 39°07' E 009°08'0 0.0
2017-Mar-08 18:28N 39°07' E 009°08'0 0.0
2017-Mar-08 17:31N 39°07' E 009°08'0 0.0
2017-Mar-08 16:31N 39°07' E 009°08'  

Dump ship's entire track history